createdAt,value
2022-11-28T00:01:02.650Z,8.20
2022-11-28T00:03:29.332Z,8.97
2022-11-28T00:05:56.417Z,7.20
2022-11-28T00:08:23.323Z,7.50
2022-11-28T00:10:49.936Z,6.60
2022-11-28T00:13:16.614Z,6.10
2022-11-28T00:15:43.456Z,7.10
2022-11-28T00:18:11.290Z,7.87
2022-11-28T00:20:37.842Z,6.60
2022-11-28T00:23:04.380Z,4.67
2022-11-28T00:25:30.954Z,8.00
2022-11-28T00:27:57.591Z,6.43
2022-11-28T00:30:24.143Z,6.43
2022-11-28T00:32:50.638Z,4.60
2022-11-28T00:35:17.206Z,2.90
2022-11-28T00:37:43.882Z,5.70
2022-11-28T00:40:10.610Z,7.30
2022-11-28T00:42:37.480Z,4.47
2022-11-28T00:45:04.146Z,5.10
2022-11-28T00:47:30.711Z,8.00
2022-11-28T00:49:57.238Z,7.30
2022-11-28T00:52:23.755Z,5.43
2022-11-28T00:54:50.293Z,6.30
2022-11-28T00:57:16.849Z,5.53
2022-11-28T00:59:43.370Z,5.83
2022-11-28T01:02:09.975Z,5.23
2022-11-28T01:04:36.607Z,5.30
2022-11-28T01:07:03.542Z,5.70
2022-11-28T01:09:30.097Z,5.50
2022-11-28T01:11:56.682Z,6.70
2022-11-28T01:14:24.162Z,6.10
2022-11-28T01:16:50.991Z,6.07
2022-11-28T01:19:17.875Z,8.60
2022-11-28T01:21:44.629Z,7.70
2022-11-28T01:24:11.221Z,7.70
2022-11-28T01:26:38.607Z,7.60
2022-11-28T01:29:05.357Z,6.57
2022-11-28T01:31:32.137Z,7.47
2022-11-28T01:33:58.838Z,7.10
2022-11-28T01:36:26.233Z,5.80
2022-11-28T01:38:53.275Z,5.33
2022-11-28T01:41:22.947Z,6.10
2022-11-28T01:43:58.805Z,7.87
2022-11-28T01:46:25.585Z,6.30
2022-11-28T01:48:52.966Z,7.27
2022-11-28T01:51:19.773Z,7.40
2022-11-28T01:53:47.199Z,5.97
2022-11-28T01:56:15.882Z,7.13
2022-11-28T01:58:45.593Z,6.00
2022-11-28T02:01:12.755Z,6.73
2022-11-28T02:03:41.975Z,9.10
2022-11-28T02:06:08.705Z,7.77
2022-11-28T02:08:35.880Z,8.47
2022-11-28T02:11:19.219Z,8.63
2022-11-28T02:14:04.735Z,8.00
2022-11-28T02:16:37.960Z,8.17
2022-11-28T02:19:10.576Z,7.77
2022-11-28T02:21:52.321Z,7.70
2022-11-28T02:24:18.891Z,7.97
2022-11-28T02:27:04.165Z,7.60
2022-11-28T02:29:30.691Z,7.83
2022-11-28T02:32:06.386Z,7.63
2022-11-28T02:34:32.864Z,8.40
2022-11-28T02:37:09.733Z,7.60
2022-11-28T02:39:55.037Z,6.70
2022-11-28T02:42:24.587Z,7.87
2022-11-28T02:45:04.064Z,7.10
2022-11-28T02:47:33.092Z,7.13
2022-11-28T02:50:08.204Z,7.97
2022-11-28T02:52:37.405Z,6.57
2022-11-28T02:55:04.255Z,7.10
2022-11-28T02:57:37.763Z,7.50
2022-11-28T03:00:22.936Z,8.17
2022-11-28T03:03:12.835Z,6.17
2022-11-28T03:05:39.360Z,6.90
2022-11-28T03:08:22.524Z,8.23
2022-11-28T03:10:55.102Z,6.47
2022-11-28T03:13:21.553Z,6.73
2022-11-28T03:16:06.873Z,6.07
2022-11-28T03:18:40.191Z,5.60
2022-11-28T03:21:15.205Z,5.83
2022-11-28T03:23:44.717Z,5.13
2022-11-28T03:26:31.468Z,5.43
2022-11-28T03:29:03.622Z,4.60
2022-11-28T03:31:36.594Z,5.03
2022-11-28T03:34:04.593Z,4.53
2022-11-28T03:36:32.663Z,4.00
2022-11-28T03:39:19.445Z,5.80
2022-11-28T03:41:59.143Z,6.10
2022-11-28T03:44:30.800Z,4.60
2022-11-28T03:46:59.171Z,5.60
2022-11-28T03:49:39.162Z,4.80
2022-11-28T03:52:12.083Z,5.20
2022-11-28T03:54:45.436Z,5.73
2022-11-28T03:57:18.299Z,6.60
2022-11-28T03:59:46.717Z,7.73
2022-11-28T04:02:13.311Z,6.70
2022-11-28T04:04:45.366Z,7.53
2022-11-28T04:07:21.721Z,6.67
2022-11-28T04:10:17.577Z,7.53
2022-11-28T04:12:44.088Z,6.07
2022-11-28T04:15:17.743Z,7.03
2022-11-28T04:17:53.152Z,6.97
2022-11-28T04:20:28.574Z,16.50
2022-11-28T04:22:57.885Z,12.00
2022-11-28T04:25:25.983Z,12.13
2022-11-28T04:27:59.573Z,12.47
2022-11-28T04:30:26.108Z,19.90
2022-11-28T04:32:56.034Z,16.73
2022-11-28T04:35:26.925Z,11.10
2022-11-28T04:37:54.707Z,8.50
2022-11-28T04:40:23.680Z,7.20
2022-11-28T04:42:55.456Z,7.40
2022-11-28T04:45:31.541Z,9.33
2022-11-28T04:47:58.356Z,8.07
2022-11-28T04:50:28.394Z,6.83
2022-11-28T04:52:57.716Z,7.90
2022-11-28T04:55:24.177Z,7.87
2022-11-28T04:57:57.293Z,7.70
2022-11-28T05:00:25.748Z,7.80
2022-11-28T05:02:54.103Z,7.93
2022-11-28T05:05:22.696Z,5.93
2022-11-28T05:07:49.343Z,6.47
2022-11-28T05:10:16.321Z,8.07
2022-11-28T05:12:42.989Z,7.83
2022-11-28T05:15:10.117Z,7.47
2022-11-28T05:17:41.916Z,7.60
2022-11-28T05:20:09.423Z,7.60
2022-11-28T05:22:35.992Z,7.40
2022-11-28T05:25:02.532Z,8.50
2022-11-28T05:27:29.433Z,6.80
2022-11-28T05:29:56.054Z,7.37
2022-11-28T05:32:22.717Z,6.80
2022-11-28T05:34:49.226Z,4.97
2022-11-28T05:37:15.936Z,5.33
2022-11-28T05:39:42.827Z,4.47
2022-11-28T05:42:09.638Z,6.83
2022-11-28T05:44:36.748Z,6.57
2022-11-28T05:47:03.407Z,5.80
2022-11-28T05:49:30.041Z,7.57
2022-11-28T05:51:56.642Z,6.57
2022-11-28T05:54:23.281Z,8.73
2022-11-28T05:56:49.883Z,8.90
2022-11-28T05:59:16.592Z,9.70
2022-11-28T06:01:43.511Z,9.57
2022-11-28T06:04:10.216Z,10.47
2022-11-28T06:06:37.262Z,11.87
2022-11-28T06:09:04.731Z,10.77
2022-11-28T06:11:32.038Z,10.73
2022-11-28T06:13:58.613Z,9.90
2022-11-28T06:16:26.747Z,9.70
2022-11-28T06:18:56.627Z,9.80
2022-11-28T06:21:23.343Z,10.70
2022-11-28T06:23:50.429Z,6.90
2022-11-28T06:26:18.784Z,10.40
2022-11-28T06:28:45.497Z,12.53
2022-11-28T06:31:16.399Z,9.50
2022-11-28T06:33:42.986Z,9.43
2022-11-28T06:36:10.035Z,9.70
2022-11-28T06:38:39.100Z,11.30
2022-11-28T06:41:07.609Z,10.87
2022-11-28T06:43:34.253Z,10.87
2022-11-28T06:46:01.154Z,10.83
2022-11-28T06:48:27.900Z,10.30
2022-11-28T06:50:54.982Z,9.80
2022-11-28T06:53:21.548Z,9.90
2022-11-28T06:55:48.076Z,10.40
2022-11-28T06:58:14.848Z,9.70
2022-11-28T07:00:41.537Z,9.67
2022-11-28T07:03:08.275Z,9.73
2022-11-28T07:05:34.823Z,9.23
2022-11-28T07:08:01.656Z,11.87
2022-11-28T07:10:28.492Z,10.50
2022-11-28T07:12:55.989Z,10.50
2022-11-28T07:15:23.003Z,9.87
2022-11-28T07:17:49.687Z,10.17
2022-11-28T07:20:16.370Z,11.37
2022-11-28T07:22:43.668Z,13.47
2022-11-28T07:25:10.795Z,11.90
2022-11-28T07:27:37.341Z,12.83
2022-11-28T07:30:04.008Z,11.53
2022-11-28T07:32:30.782Z,12.10
2022-11-28T07:34:57.440Z,12.33
2022-11-28T07:37:24.042Z,13.23
2022-11-28T07:39:50.618Z,13.20
2022-11-28T07:42:17.174Z,11.83
2022-11-28T07:44:55.202Z,15.70
2022-11-28T07:47:21.920Z,14.23
2022-11-28T07:49:48.472Z,12.00
2022-11-28T07:52:15.344Z,14.33
2022-11-28T07:54:41.857Z,14.10
2022-11-28T07:57:12.693Z,14.33
2022-11-28T07:59:39.991Z,14.70
2022-11-28T08:02:06.756Z,15.97
2022-11-28T08:04:33.581Z,12.70
2022-11-28T08:07:00.138Z,13.67
2022-11-28T08:09:26.685Z,19.80
2022-11-28T08:11:53.230Z,13.60
2022-11-28T08:14:20.302Z,14.87
2022-11-28T08:16:46.842Z,13.83
2022-11-28T08:19:13.496Z,14.27
2022-11-28T08:21:40.173Z,15.67
2022-11-28T08:24:08.119Z,14.67
2022-11-28T08:26:35.220Z,19.80
2022-11-28T08:29:02.528Z,16.87
2022-11-28T08:31:36.873Z,15.30
2022-11-28T08:34:05.034Z,17.60
2022-11-28T08:36:32.061Z,14.70
2022-11-28T08:39:22.861Z,16.27
2022-11-28T08:41:49.993Z,15.20
2022-11-28T08:44:16.785Z,15.87
2022-11-28T08:46:43.514Z,14.93
2022-11-28T08:49:10.235Z,15.10
2022-11-28T08:51:37.047Z,14.63
2022-11-28T08:54:03.827Z,15.67
2022-11-28T08:56:30.461Z,14.70
2022-11-28T08:58:57.194Z,14.03
2022-11-28T09:01:25.364Z,14.53
2022-11-28T09:03:52.562Z,15.27
2022-11-28T09:06:20.603Z,13.70
2022-11-28T09:08:47.737Z,14.90
2022-11-28T09:11:16.109Z,12.57
2022-11-28T09:13:42.953Z,13.93
2022-11-28T09:16:10.011Z,13.63
2022-11-28T09:18:36.770Z,15.70
2022-11-28T09:21:05.331Z,12.13
2022-11-28T09:23:32.144Z,11.60
2022-11-28T09:25:58.964Z,8.00
2022-11-28T09:28:28.770Z,7.70
2022-11-28T09:31:02.660Z,7.70
2022-11-28T09:33:29.495Z,7.90
2022-11-28T09:35:56.647Z,5.73
2022-11-28T09:38:23.319Z,6.10
2022-11-28T09:40:50.349Z,6.13
2022-11-28T09:43:21.571Z,7.40
2022-11-28T09:45:50.978Z,5.20
2022-11-28T09:48:23.209Z,5.27
2022-11-28T09:50:52.556Z,7.20
2022-11-28T09:53:28.395Z,5.93
2022-11-28T09:56:13.776Z,5.03
2022-11-28T09:58:48.441Z,4.10
2022-11-28T10:01:17.208Z,4.37
2022-11-28T10:03:43.938Z,3.77
2022-11-28T10:06:23.315Z,6.40
2022-11-28T10:09:05.529Z,7.57
2022-11-28T10:11:32.179Z,5.60
2022-11-28T10:14:08.844Z,4.00
2022-11-28T10:16:49.360Z,4.27
2022-11-28T10:19:38.592Z,3.63
2022-11-28T10:22:06.795Z,3.90
2022-11-28T10:24:43.506Z,2.83
2022-11-28T10:27:12.454Z,3.50
2022-11-28T10:29:39.055Z,4.50
2022-11-28T10:32:06.467Z,4.40
2022-11-28T10:34:39.202Z,4.20
2022-11-28T10:37:25.840Z,3.87
2022-11-28T10:39:52.730Z,3.63
2022-11-28T10:42:22.390Z,3.97
2022-11-28T10:45:15.111Z,9.60
2022-11-28T10:47:41.662Z,6.07
2022-11-28T10:50:15.461Z,5.80
2022-11-28T10:52:50.140Z,5.23
2022-11-28T10:55:29.241Z,4.50
2022-11-28T10:58:03.547Z,5.60
2022-11-28T11:00:30.604Z,5.87
2022-11-28T11:03:00.730Z,14.60
2022-11-28T11:05:28.730Z,5.37
2022-11-28T11:07:59.742Z,5.73
2022-11-28T11:10:33.460Z,4.33
2022-11-28T11:13:00.220Z,5.87
2022-11-28T11:15:31.080Z,5.77
2022-11-28T11:17:59.794Z,5.60
2022-11-28T11:20:31.415Z,5.90
2022-11-28T11:22:59.913Z,6.57
2022-11-28T11:25:28.123Z,5.50
2022-11-28T11:27:56.110Z,6.90
2022-11-28T11:30:27.076Z,6.27
2022-11-28T11:32:54.689Z,7.03
2022-11-28T11:35:33.131Z,7.17
2022-11-28T11:38:19.982Z,7.67
2022-11-28T11:40:47.182Z,8.30
2022-11-28T11:43:23.031Z,7.30
2022-11-28T11:46:03.522Z,8.60
2022-11-28T11:48:37.637Z,8.70
2022-11-28T11:51:04.635Z,9.27
2022-11-28T11:53:31.448Z,8.17
2022-11-28T11:56:00.555Z,8.90
2022-11-28T11:58:41.367Z,9.97
2022-11-28T12:01:08.735Z,8.63
2022-11-28T12:03:39.688Z,9.10
2022-11-28T12:06:45.075Z,11.00
2022-11-28T12:09:34.417Z,9.57
2022-11-28T12:12:07.463Z,9.73
2022-11-28T12:14:38.046Z,10.70
2022-11-28T12:17:40.523Z,11.07
2022-11-28T12:20:25.750Z,9.30
2022-11-28T12:23:05.316Z,8.30
2022-11-28T12:25:36.484Z,8.10
2022-11-28T12:28:32.413Z,8.77
2022-11-28T12:31:35.854Z,8.13
2022-11-28T12:34:13.745Z,6.80
2022-11-28T12:36:47.625Z,7.20
2022-11-28T12:39:14.953Z,7.83
2022-11-28T12:42:12.397Z,7.70
2022-11-28T12:45:08.698Z,7.83
2022-11-28T12:47:58.136Z,8.47
2022-11-28T12:50:33.534Z,8.47
2022-11-28T12:53:12.048Z,8.80
2022-11-28T12:55:49.237Z,9.70
2022-11-28T12:58:16.077Z,9.87
2022-11-28T13:01:00.408Z,10.30
2022-11-28T13:03:36.584Z,10.37
2022-11-28T13:06:10.488Z,10.20
2022-11-28T13:08:50.778Z,10.50
2022-11-28T13:11:24.360Z,10.90
2022-11-28T13:14:03.512Z,12.13
2022-11-28T13:16:45.162Z,12.30
2022-11-28T13:19:27.066Z,11.60
2022-11-28T13:22:43.840Z,10.83
2022-11-28T13:25:25.005Z,11.17
2022-11-28T13:27:56.224Z,10.80
2022-11-28T13:30:23.001Z,10.43
2022-11-28T13:33:01.520Z,11.37
2022-11-28T13:35:28.688Z,13.90
2022-11-28T13:40:56.344Z,14.10
2022-11-28T13:43:33.061Z,13.00
2022-11-28T13:46:01.528Z,12.93
2022-11-28T13:49:05.898Z,12.30
2022-11-28T13:51:28.882Z,12.70
2022-11-28T13:54:16.543Z,15.47
2022-11-28T13:56:46.359Z,13.70
2022-11-28T13:59:22.894Z,10.93
2022-11-28T14:02:01.011Z,13.40
2022-11-28T14:04:29.389Z,12.80
2022-11-28T14:07:04.625Z,12.70
2022-11-28T14:09:44.912Z,14.20
2022-11-28T14:12:21.186Z,13.30
2022-11-28T14:14:56.499Z,13.93
2022-11-28T14:17:41.647Z,12.13
2022-11-28T14:20:11.376Z,13.20
2022-11-28T14:22:41.145Z,13.60
2022-11-28T14:25:23.729Z,12.43
2022-11-28T14:28:11.125Z,12.67
2022-11-28T14:30:43.070Z,12.33
2022-11-28T14:33:33.097Z,13.60
2022-11-28T14:36:03.296Z,12.70
2022-11-28T14:38:29.931Z,12.73
2022-11-28T14:41:01.055Z,14.67
2022-11-28T14:43:31.513Z,14.30
2022-11-28T14:46:16.715Z,13.67
2022-11-28T14:48:58.939Z,13.47
2022-11-28T14:51:44.448Z,13.03
2022-11-28T14:54:21.042Z,15.70
2022-11-28T14:56:48.365Z,14.10
2022-11-28T14:59:16.516Z,18.20
2022-11-28T15:01:54.641Z,18.17
2022-11-28T15:04:24.463Z,17.33
2022-11-28T15:06:52.906Z,20.23
2022-11-28T15:09:28.871Z,15.90
2022-11-28T15:12:04.922Z,16.77
2022-11-28T15:14:33.249Z,18.07
2022-11-28T15:17:03.266Z,20.20
2022-11-28T15:19:33.000Z,17.63
2022-11-28T15:22:00.328Z,18.63
2022-11-28T15:24:27.423Z,19.07
2022-11-28T15:26:57.558Z,19.33
2022-11-28T15:29:26.154Z,17.63
2022-11-28T15:31:55.529Z,46.33
2022-11-28T15:34:27.040Z,30.50
2022-11-28T15:36:55.074Z,20.37
2022-11-28T15:39:27.308Z,19.37
2022-11-28T15:41:55.494Z,20.40
2022-11-28T15:44:22.672Z,20.57
2022-11-28T15:46:49.471Z,19.03
2022-11-28T15:49:27.524Z,19.60
2022-11-28T15:51:54.930Z,18.40
2022-11-28T15:54:25.832Z,20.10
2022-11-28T15:56:56.291Z,17.50
2022-11-28T15:59:22.920Z,18.00
2022-11-28T16:01:51.655Z,16.53
2022-11-28T16:04:20.989Z,17.23
2022-11-28T16:06:51.734Z,19.13
2022-11-28T16:09:18.379Z,18.70
2022-11-28T16:11:46.632Z,17.43
2022-11-28T16:14:19.417Z,16.47
2022-11-28T16:16:46.126Z,17.57
2022-11-28T16:19:22.687Z,18.33
2022-11-28T16:21:55.033Z,18.67
2022-11-28T16:24:35.345Z,19.03
2022-11-28T16:27:05.507Z,20.07
2022-11-28T16:29:34.818Z,18.60
2022-11-28T16:32:09.329Z,18.53
2022-11-28T16:34:46.782Z,18.87
2022-11-28T16:37:13.789Z,19.87
2022-11-28T16:39:40.809Z,20.00
2022-11-28T16:42:14.241Z,20.80
2022-11-28T16:44:40.862Z,22.30
2022-11-28T16:47:22.685Z,22.27
2022-11-28T16:50:16.119Z,22.37
2022-11-28T16:52:50.449Z,22.90
2022-11-28T16:55:33.104Z,22.40
2022-11-28T16:58:08.957Z,20.50
2022-11-28T17:00:35.850Z,23.00
2022-11-28T17:03:06.440Z,21.50
2022-11-28T17:05:35.730Z,23.13
2022-11-28T17:08:02.460Z,23.90
2022-11-28T17:10:29.178Z,24.60
2022-11-28T17:12:55.819Z,23.50
2022-11-28T17:15:23.620Z,27.10
2022-11-28T17:17:50.486Z,32.73
2022-11-28T17:20:17.845Z,27.30
2022-11-28T17:22:46.409Z,31.20
2022-11-28T17:25:18.314Z,34.43
2022-11-28T17:27:45.187Z,29.20
2022-11-28T17:30:16.043Z,26.17
2022-11-28T17:32:42.630Z,23.90
2022-11-28T17:35:20.078Z,25.40
2022-11-28T17:37:46.690Z,23.47
2022-11-28T17:40:32.086Z,22.77
2022-11-28T17:42:58.969Z,24.97
2022-11-28T17:45:27.602Z,34.57
2022-11-28T17:47:54.342Z,26.87
2022-11-28T17:50:21.023Z,24.00
2022-11-28T17:52:47.753Z,25.97
2022-11-28T17:55:14.775Z,26.90
2022-11-28T17:57:41.764Z,27.80
2022-11-28T18:00:09.101Z,23.83
2022-11-28T18:02:42.277Z,22.60
2022-11-28T18:05:09.553Z,25.20
2022-11-28T18:07:36.189Z,24.43
2022-11-28T18:10:03.113Z,25.87
2022-11-28T18:12:30.078Z,23.63
2022-11-28T18:14:56.733Z,24.07
2022-11-28T18:17:24.403Z,25.90
2022-11-28T18:19:55.926Z,27.13
2022-11-28T18:22:24.088Z,26.87
2022-11-28T18:24:50.785Z,27.30
2022-11-28T18:27:17.519Z,24.43
2022-11-28T18:29:44.662Z,23.90
2022-11-28T18:32:11.804Z,25.37
2022-11-28T18:34:38.603Z,24.17
2022-11-28T18:37:05.427Z,26.83
2022-11-28T18:39:33.119Z,25.57
2022-11-28T18:42:00.145Z,25.53
2022-11-28T18:44:28.433Z,26.07
2022-11-28T18:46:55.143Z,23.20
2022-11-28T18:49:22.136Z,26.60
2022-11-28T18:51:48.829Z,25.53
2022-11-28T18:54:20.845Z,26.50
2022-11-28T18:56:48.917Z,25.73
2022-11-28T18:59:16.146Z,27.50
2022-11-28T19:01:42.845Z,27.37
2022-11-28T19:04:11.200Z,28.33
2022-11-28T19:06:39.033Z,26.50
2022-11-28T19:09:07.690Z,26.67
2022-11-28T19:11:35.584Z,25.33
2022-11-28T19:14:02.609Z,27.00
2022-11-28T19:16:31.119Z,27.67
2022-11-28T19:18:58.440Z,26.00
2022-11-28T19:21:26.415Z,27.40
2022-11-28T19:23:54.280Z,25.53
2022-11-28T19:26:22.265Z,26.13
2022-11-28T19:28:49.327Z,28.03
2022-11-28T19:31:17.235Z,27.60
2022-11-28T19:33:44.351Z,31.37
2022-11-28T19:36:12.341Z,28.77
2022-11-28T19:38:39.407Z,27.53
2022-11-28T19:41:16.320Z,27.87
2022-11-28T19:43:43.205Z,31.10
2022-11-28T19:46:10.552Z,32.27
2022-11-28T19:48:39.066Z,31.27
2022-11-28T19:51:06.267Z,31.40
2022-11-28T19:53:34.251Z,29.87
2022-11-28T19:56:05.144Z,31.03
2022-11-28T19:58:32.183Z,27.93
2022-11-28T20:01:05.400Z,30.97
2022-11-28T20:03:32.610Z,32.50
2022-11-28T20:05:59.419Z,35.20
2022-11-28T20:08:26.402Z,35.67
2022-11-28T20:10:53.136Z,37.90
2022-11-28T20:13:19.841Z,36.53
2022-11-28T20:15:46.858Z,42.47
2022-11-28T20:18:13.451Z,44.37
2022-11-28T20:20:40.194Z,37.67
2022-11-28T20:23:07.136Z,37.97
2022-11-28T20:25:33.868Z,36.27
2022-11-28T20:28:01.025Z,33.20
2022-11-28T20:30:27.641Z,40.67
2022-11-28T20:32:54.946Z,40.60
2022-11-28T20:35:24.407Z,39.40
2022-11-28T20:37:51.502Z,38.97
2022-11-28T20:40:18.254Z,41.40
2022-11-28T20:42:44.956Z,44.13
2022-11-28T20:45:11.662Z,45.83
2022-11-28T20:47:38.411Z,43.53
2022-11-28T20:50:06.038Z,41.70
2022-11-28T20:52:32.632Z,43.80
2022-11-28T20:54:59.405Z,46.03
2022-11-28T20:57:26.517Z,48.60
2022-11-28T20:59:56.675Z,48.70
2022-11-28T21:02:23.964Z,49.30
2022-11-28T21:04:50.663Z,48.00
2022-11-28T21:07:18.595Z,45.60
2022-11-28T21:09:45.625Z,43.90
2022-11-28T21:12:14.488Z,46.23
2022-11-28T21:14:44.791Z,38.60
2022-11-28T21:17:11.565Z,38.80
2022-11-28T21:19:38.256Z,40.03
2022-11-28T21:22:04.930Z,37.13
2022-11-28T21:24:31.577Z,34.97
2022-11-28T21:26:58.256Z,31.23
2022-11-28T21:29:24.958Z,33.80
2022-11-28T21:31:53.396Z,33.50
2022-11-28T21:34:30.316Z,32.70
2022-11-28T21:36:56.894Z,34.60
2022-11-28T21:39:23.488Z,36.60
2022-11-28T21:41:51.078Z,36.60
2022-11-28T21:44:17.836Z,34.97
2022-11-28T21:46:44.406Z,35.57
2022-11-28T21:49:12.328Z,35.40
2022-11-28T21:51:39.691Z,37.00
2022-11-28T21:54:06.284Z,37.83
2022-11-28T21:56:33.480Z,38.47
2022-11-28T21:59:00.147Z,38.00
2022-11-28T22:01:27.031Z,36.90
2022-11-28T22:03:59.022Z,37.53
2022-11-28T22:06:29.003Z,38.70
2022-11-28T22:08:55.665Z,37.20
2022-11-28T22:11:22.696Z,35.70
2022-11-28T22:13:49.834Z,33.40
2022-11-28T22:16:16.539Z,30.90
2022-11-28T22:18:44.321Z,30.70
2022-11-28T22:21:49.468Z,31.13
2022-11-28T22:23:58.517Z,32.90
2022-11-28T22:26:25.274Z,32.90
2022-11-28T22:28:53.898Z,33.33
2022-11-28T22:31:22.904Z,30.40
2022-11-28T22:33:49.947Z,30.53
2022-11-28T22:36:17.707Z,32.17
2022-11-28T22:38:44.786Z,30.87
2022-11-28T22:41:15.806Z,32.47
2022-11-28T22:43:42.609Z,31.70
2022-11-28T22:46:09.797Z,31.67
2022-11-28T22:48:37.214Z,33.33
2022-11-28T22:51:11.741Z,31.90
2022-11-28T22:53:38.419Z,33.63
2022-11-28T22:56:05.508Z,31.70
2022-11-28T22:58:42.140Z,32.27
2022-11-28T23:01:11.043Z,33.40
2022-11-28T23:03:37.722Z,33.57
2022-11-28T23:06:05.796Z,33.27
2022-11-28T23:08:32.452Z,32.70
2022-11-28T23:10:59.068Z,33.57
2022-11-28T23:13:25.623Z,30.57
2022-11-28T23:15:53.071Z,32.00
2022-11-28T23:18:19.806Z,30.30
2022-11-28T23:20:46.545Z,31.37
2022-11-28T23:23:13.095Z,31.57
2022-11-28T23:25:39.881Z,31.10
2022-11-28T23:28:07.367Z,32.53
2022-11-28T23:30:34.461Z,33.50
2022-11-28T23:33:01.398Z,31.83
2022-11-28T23:35:28.088Z,31.10
2022-11-28T23:37:55.272Z,30.43
2022-11-28T23:40:21.802Z,31.10
2022-11-28T23:42:48.454Z,30.80
2022-11-28T23:45:15.031Z,30.90
2022-11-28T23:47:41.612Z,28.47
2022-11-28T23:50:08.504Z,31.87
2022-11-28T23:52:35.003Z,31.40
2022-11-28T23:55:01.560Z,31.47
2022-11-28T23:57:28.297Z,32.23
2022-11-28T23:59:54.979Z,33.43
